createdAt,value
2023-05-11T00:04:28.420Z,49.30
2023-05-11T00:09:31.237Z,49.25
2023-05-11T00:14:34.024Z,48.58
2023-05-11T00:19:36.765Z,48.72
2023-05-11T00:24:39.480Z,49.28
2023-05-11T00:29:42.455Z,50.12
2023-05-11T00:34:46.022Z,51.60
2023-05-11T00:39:48.778Z,51.53
2023-05-11T00:44:51.612Z,51.04
2023-05-11T00:49:54.947Z,52.48
2023-05-11T00:54:57.718Z,52.27
2023-05-11T01:00:03.847Z,51.44
2023-05-11T01:05:10.844Z,52.12
2023-05-11T01:10:31.511Z,52.00
2023-05-11T01:15:43.641Z,53.28
2023-05-11T01:20:52.167Z,54.08
2023-05-11T01:26:30.653Z,54.27
2023-05-11T01:31:35.529Z,53.47
2023-05-11T01:36:44.634Z,53.49
2023-05-11T01:41:52.620Z,53.38
2023-05-11T01:46:56.601Z,54.06
2023-05-11T01:52:01.788Z,53.80
2023-05-11T01:57:07.045Z,53.93
2023-05-11T02:02:10.608Z,53.96
2023-05-11T02:07:14.594Z,54.36
2023-05-11T02:12:20.064Z,55.53
2023-05-11T02:17:25.263Z,55.33
2023-05-11T02:22:29.764Z,55.86
2023-05-11T02:27:33.191Z,56.29
2023-05-11T02:32:39.153Z,57.13
2023-05-11T02:37:45.484Z,56.90
2023-05-11T02:42:57.183Z,57.54
2023-05-11T02:48:05.951Z,57.43
2023-05-11T02:53:14.951Z,58.04
2023-05-11T02:58:20.412Z,58.03
2023-05-11T03:03:30.135Z,57.85
2023-05-11T03:08:33.315Z,57.88
2023-05-11T03:13:37.409Z,57.70
2023-05-11T03:18:42.220Z,56.81
2023-05-11T03:23:46.224Z,55.27
2023-05-11T03:28:52.509Z,54.87
2023-05-11T03:33:55.866Z,54.25
2023-05-11T03:39:02.122Z,53.67
2023-05-11T03:44:11.093Z,54.57
2023-05-11T03:49:18.644Z,56.13
2023-05-11T03:54:21.567Z,55.86
2023-05-11T03:59:26.402Z,54.60
2023-05-11T04:04:30.837Z,53.36
2023-05-11T04:09:36.365Z,52.98
2023-05-11T04:14:39.095Z,52.07
2023-05-11T04:19:41.801Z,50.51
2023-05-11T04:24:44.632Z,50.23
2023-05-11T04:29:48.780Z,50.43
2023-05-11T04:34:52.801Z,51.07
2023-05-11T04:39:58.661Z,50.89
2023-05-11T04:45:01.813Z,50.62
2023-05-11T04:50:07.748Z,50.22
2023-05-11T04:55:11.723Z,49.37
2023-05-11T05:00:15.849Z,48.16
2023-05-11T05:05:18.985Z,46.96
2023-05-11T05:10:22.152Z,45.60
2023-05-11T05:15:25.143Z,44.13
2023-05-11T05:20:27.904Z,41.91
2023-05-11T05:25:30.655Z,39.50
2023-05-11T05:30:33.495Z,36.23
2023-05-11T05:35:36.379Z,35.98
2023-05-11T05:40:40.272Z,35.38
2023-05-11T05:45:43.955Z,35.81
2023-05-11T05:50:47.338Z,35.86
2023-05-11T05:55:50.363Z,36.89
2023-05-11T06:00:53.576Z,35.00
2023-05-11T06:05:56.292Z,34.31
2023-05-11T06:10:59.528Z,34.02
2023-05-11T06:16:02.306Z,34.02
2023-05-11T06:21:08.948Z,34.51
2023-05-11T06:26:12.219Z,34.35
2023-05-11T06:31:15.804Z,33.09
2023-05-11T06:36:19.621Z,33.42
2023-05-11T06:41:22.755Z,33.06
2023-05-11T06:46:27.381Z,32.65
2023-05-11T06:51:30.839Z,32.41
2023-05-11T06:56:34.257Z,31.51
2023-05-11T07:01:37.094Z,31.68
2023-05-11T07:06:39.722Z,31.12
2023-05-11T07:11:42.399Z,31.00
2023-05-11T07:16:46.588Z,30.07
2023-05-11T07:21:49.368Z,30.38
2023-05-11T07:26:52.122Z,30.85
2023-05-11T07:31:54.890Z,30.71
2023-05-11T07:36:57.861Z,30.99
2023-05-11T07:42:00.597Z,30.78
2023-05-11T07:47:03.267Z,30.00
2023-05-11T07:52:06.031Z,29.66
2023-05-11T07:57:09.139Z,29.82
2023-05-11T08:02:13.307Z,30.14
2023-05-11T08:07:16.626Z,29.70
2023-05-11T08:12:19.274Z,28.63
2023-05-11T08:17:22.026Z,27.72
2023-05-11T08:22:24.838Z,29.43
2023-05-11T08:27:27.502Z,29.81
2023-05-11T08:32:30.501Z,29.41
2023-05-11T08:37:33.321Z,28.53
2023-05-11T08:42:40.098Z,27.76
2023-05-11T08:47:42.896Z,29.57
2023-05-11T08:52:46.334Z,29.13
2023-05-11T08:57:51.754Z,29.48
2023-05-11T09:02:56.090Z,32.53
2023-05-11T09:08:06.275Z,36.49
2023-05-11T09:13:09.604Z,37.46
2023-05-11T09:18:13.448Z,39.67
2023-05-11T09:23:17.607Z,41.20
2023-05-11T09:28:27.229Z,42.14
2023-05-11T09:33:30.067Z,43.87
2023-05-11T09:38:33.096Z,44.01
2023-05-11T09:43:35.777Z,43.91
2023-05-11T09:48:38.593Z,45.48
2023-05-11T09:53:46.293Z,42.43
2023-05-11T09:58:51.654Z,41.35
2023-05-11T10:04:00.392Z,42.27
2023-05-11T10:09:13.057Z,40.27
2023-05-11T10:14:16.697Z,37.77
2023-05-11T10:19:19.872Z,37.78
2023-05-11T10:24:23.284Z,37.25
2023-05-11T10:29:26.841Z,35.75
2023-05-11T10:34:30.130Z,34.01
2023-05-11T10:39:33.386Z,36.83
2023-05-11T10:44:40.711Z,38.05
2023-05-11T10:50:05.199Z,39.44
2023-05-11T10:55:28.736Z,36.78
2023-05-11T11:00:50.336Z,36.53
2023-05-11T11:05:53.061Z,37.44
2023-05-11T11:10:56.505Z,37.56
2023-05-11T11:16:00.871Z,37.85
2023-05-11T11:21:04.630Z,37.01
2023-05-11T11:26:08.595Z,36.57
2023-05-11T11:31:28.200Z,36.53
2023-05-11T11:36:55.530Z,36.29
2023-05-11T11:42:06.798Z,38.07
2023-05-11T11:47:12.953Z,50.00
2023-05-11T11:52:28.697Z,54.98
2023-05-11T11:57:34.250Z,56.73
2023-05-11T12:02:41.931Z,60.62
2023-05-11T12:07:48.456Z,62.54
2023-05-11T12:12:55.145Z,64.76
2023-05-11T12:17:58.580Z,65.91
2023-05-11T12:23:01.679Z,66.54
2023-05-11T12:28:04.909Z,66.78
2023-05-11T12:33:08.345Z,66.33
2023-05-11T12:38:11.804Z,65.85
2023-05-11T12:43:18.372Z,65.89
2023-05-11T12:48:21.397Z,63.88
2023-05-11T12:53:24.118Z,61.87
2023-05-11T12:58:26.945Z,61.27
2023-05-11T13:03:31.664Z,60.09
2023-05-11T13:08:39.088Z,58.54
2023-05-11T13:13:42.379Z,58.06
2023-05-11T13:19:00.782Z,56.54
2023-05-11T13:24:04.136Z,54.39
2023-05-11T13:29:11.207Z,51.51
2023-05-11T13:34:14.640Z,49.68
2023-05-11T13:39:17.447Z,48.40
2023-05-11T13:44:20.161Z,47.70
2023-05-11T13:49:22.986Z,46.68
2023-05-11T13:54:25.697Z,46.39
2023-05-11T13:59:28.556Z,46.14
2023-05-11T14:04:31.471Z,45.86
2023-05-11T14:09:34.361Z,44.61
2023-05-11T14:14:37.013Z,44.90
2023-05-11T14:19:40.429Z,45.06
2023-05-11T14:24:43.159Z,45.19
2023-05-11T14:29:45.955Z,44.57
2023-05-11T14:34:48.905Z,44.13
2023-05-11T14:39:51.592Z,44.32
2023-05-11T14:44:54.361Z,43.91
2023-05-11T14:49:57.080Z,43.81
2023-05-11T14:54:59.890Z,43.92
2023-05-11T15:00:03.215Z,43.81
2023-05-11T15:05:10.638Z,44.40
2023-05-11T15:10:13.298Z,44.49
2023-05-11T15:15:16.699Z,43.88
2023-05-11T15:20:19.841Z,44.24
2023-05-11T15:25:22.595Z,43.67
2023-05-11T15:30:25.491Z,43.66
2023-05-11T15:35:28.230Z,43.47
2023-05-11T15:40:30.954Z,43.66
2023-05-11T15:45:33.983Z,43.85
2023-05-11T15:50:36.793Z,44.38
2023-05-11T15:55:41.101Z,44.56
2023-05-11T16:00:43.876Z,45.44
2023-05-11T16:05:46.790Z,45.70
2023-05-11T16:10:49.499Z,45.65
2023-05-11T16:15:52.512Z,45.64
2023-05-11T16:20:55.172Z,47.75
2023-05-11T16:25:58.036Z,54.50
2023-05-11T16:31:01.083Z,56.84
2023-05-11T16:36:05.704Z,56.54
2023-05-11T16:41:08.453Z,56.67
2023-05-11T16:46:11.270Z,58.12
2023-05-11T16:51:14.179Z,58.29
2023-05-11T16:56:17.669Z,59.14
2023-05-11T17:01:21.643Z,60.99
2023-05-11T17:06:26.914Z,61.51
2023-05-11T17:11:29.625Z,63.17
2023-05-11T17:16:32.515Z,63.80
2023-05-11T17:21:35.253Z,65.54
2023-05-11T17:26:47.020Z,66.33
2023-05-11T17:31:51.820Z,66.84
2023-05-11T17:36:55.233Z,67.33
2023-05-11T17:41:58.155Z,68.03
2023-05-11T17:47:00.896Z,68.77
2023-05-11T17:52:03.695Z,69.32
2023-05-11T17:57:06.525Z,70.29
2023-05-11T18:02:10.308Z,71.47
2023-05-11T18:07:12.964Z,72.56
2023-05-11T18:12:16.328Z,72.91
2023-05-11T18:17:19.267Z,74.07
2023-05-11T18:22:23.311Z,74.27
2023-05-11T18:27:26.118Z,74.80
2023-05-11T18:32:28.768Z,75.79
2023-05-11T18:37:31.871Z,75.49
2023-05-11T18:42:37.754Z,75.53
2023-05-11T18:47:44.537Z,75.30
2023-05-11T18:52:47.456Z,75.14
2023-05-11T18:57:50.704Z,75.52
2023-05-11T19:02:56.231Z,75.75
2023-05-11T19:07:59.064Z,75.60
2023-05-11T19:13:01.700Z,76.00
2023-05-11T19:18:05.639Z,76.51
2023-05-11T19:23:08.327Z,76.99
2023-05-11T19:28:11.142Z,77.90
2023-05-11T19:33:13.820Z,78.33
2023-05-11T19:38:16.731Z,78.71
2023-05-11T19:43:19.861Z,78.97
2023-05-11T19:48:22.886Z,78.98
2023-05-11T19:53:27.410Z,79.73
2023-05-11T19:58:34.467Z,80.38
2023-05-11T20:03:38.821Z,80.69
2023-05-11T20:08:47.899Z,81.78
2023-05-11T20:13:53.613Z,81.93
2023-05-11T20:18:59.533Z,82.56
2023-05-11T20:24:02.862Z,82.39
2023-05-11T20:29:09.713Z,82.97
2023-05-11T20:34:12.878Z,83.24
2023-05-11T20:39:17.668Z,84.17
2023-05-11T20:44:20.336Z,83.95
2023-05-11T20:49:37.692Z,84.19
2023-05-11T20:54:41.765Z,83.73
2023-05-11T21:04:50.062Z,85.29
2023-05-11T21:09:52.874Z,84.69
2023-05-11T21:14:56.987Z,84.33
2023-05-11T21:20:00.063Z,84.41
2023-05-11T21:25:04.100Z,84.50
2023-05-11T21:30:10.153Z,84.45
2023-05-11T21:35:15.053Z,84.76
2023-05-11T21:40:18.275Z,84.88
2023-05-11T21:45:21.546Z,85.05
2023-05-11T21:50:24.518Z,86.11
2023-05-11T21:55:27.225Z,86.03
2023-05-11T22:00:29.993Z,86.82
2023-05-11T22:05:32.651Z,87.22
2023-05-11T22:10:35.269Z,86.86
2023-05-11T22:15:38.476Z,87.81
2023-05-11T22:20:41.184Z,87.88
2023-05-11T22:25:44.508Z,88.46
2023-05-11T22:30:47.247Z,88.72
2023-05-11T22:35:49.888Z,88.28
2023-05-11T22:40:52.743Z,88.73
2023-05-11T22:45:55.633Z,89.40
2023-05-11T22:50:58.329Z,89.22
2023-05-11T22:56:05.641Z,89.71
2023-05-11T23:01:08.916Z,90.23
2023-05-11T23:06:12.409Z,90.24
2023-05-11T23:11:15.520Z,90.57
2023-05-11T23:16:19.423Z,90.28
2023-05-11T23:21:22.077Z,90.68
2023-05-11T23:26:24.908Z,90.28
2023-05-11T23:31:28.555Z,90.54
2023-05-11T23:36:31.349Z,91.29
2023-05-11T23:41:33.980Z,90.74
2023-05-11T23:46:36.768Z,91.14
2023-05-11T23:51:39.634Z,91.49
2023-05-11T23:56:44.314Z,91.25
